Latest Weather Observations for Essendon Airport

IDV60901

Issued at 9:45 pm EST Tuesday 30 September 2014 (issued every 10 minutes, with the page automatically refreshed every 10 minutes)

About weather observations | Map of Melbourne area stations | Latest observations for Melbourne area | Other Formats
Station Details ID: 086038 Name: ESSENDON AIRPORT Lat: -37.73 Lon: 144.91 Height: 78.4 m
Data from the previous 72 hours. | See also: Recent months at Essendon Airport
Date/Time
EST
Tmp

°C
App
Tmp
°C
Dew
Point
°C
Rel
Hum
%
Delta-T

°C
Wind Press
QNH
hPa
Press
MSL
hPa
Rain
since
9 am
mm
Dir
 
Spd
km/h
Gust
km/h
Spd
kts
Gust
kts
30/09:30pm 8.5 3.3 3.6 71 2.1 W 20 26 11 14 1013.6 1013.7 2.8
30/09:00pm 9.2 3.0 4.2 71 2.2 W 26 35 14 19 1013.5 1013.6 2.8
30/08:30pm 9.4 2.9 4.6 72 2.1 W 28 37 15 20 1013.3 1013.4 2.8
30/08:00pm 9.2 4.3 5.2 76 1.8 W 20 30 11 16 1013.2 1013.3 2.8
30/07:30pm 9.3 5.0 5.3 76 1.8 W 17 26 9 14 1012.3 1012.4 2.8
30/07:00pm 9.8 5.2 5.4 74 2.0 W 19 24 10 13 1011.5 1011.6 2.8
30/06:30pm 10.3 1.7 4.9 69 2.4 W 39 59 21 32 1010.7 1010.8 2.8
30/06:10pm 10.9 4.0 6.3 73 2.2 W 32 50 17 27 1010.8 1010.9 2.8
30/06:00pm 11.0 4.9 6.4 73 2.2 WNW 28 39 15 21 1010.6 1010.7 2.8
30/05:30pm 10.6 4.4 6.2 74 2.1 W 28 43 15 23 1010.2 1010.3 2.8
30/05:02pm 10.4 2.8 6.0 74 2.0 W 35 46 19 25 1010.0 1010.1 2.8
30/05:00pm 10.5 2.9 5.9 73 2.1 W 35 46 19 25 1010.0 1010.1 2.8
30/04:49pm 9.5 0.9 6.4 81 1.4 W 41 52 22 28 1009.9 1009.9 2.8
30/04:30pm 9.5 -1.2 6.4 81 1.4 W 52 70 28 38 1009.6 1009.6 2.8
30/04:24pm 9.5 -1.2 6.6 82 1.4 W 52 70 28 38 1009.4 1009.4 2.8
30/04:16pm 9.6 -1.1 7.9 89 0.8 WSW 54 70 29 38 1009.5 1009.5 2.2
30/04:00pm 10.3 -0.8 8.7 90 0.8 WSW 57 80 31 43 1009.0 1009.0 1.4
30/03:45pm 11.2 -0.1 9.5 89 0.9 W 59 80 32 43 1007.6 1007.6 0.4
30/03:39pm 12.3 0.8 10.0 86 1.2 W 61 80 33 43 1006.9 1006.9 0.0
30/03:35pm 12.7 -0.5 10.2 85 1.3 W 70 80 38 43 1006.4 1006.4 0.0
30/03:30pm 13.3 4.2 11.4 88 1.0 W 50 72 27 39 1005.9 1005.9 0.0
30/03:17pm 13.2 1.9 10.9 86 1.2 W 61 89 33 48 1005.4 1005.4 0.0
30/03:08pm 15.8 2.8 8.8 63 3.6 WSW 67 87 36 47 1005.1 1005.1 0.0
30/03:07pm 16.0 1.9 8.2 60 4.0 WSW 72 87 39 47 1004.9 1004.9 0.0
30/03:00pm 21.8 10.8 4.8 33 8.4 NW 52 74 28 40 1003.1 1003.1 0.0
30/02:30pm 23.2 10.6 5.6 32 8.9 NW 61 85 33 46 1002.4 1002.4 0.0
30/02:00pm 23.6 12.5 6.4 33 8.9 NNW 54 82 29 44 1002.5 1002.5 0.0
30/01:30pm 22.4 13.8 8.1 40 7.5 N 43 69 23 37 1002.9 1002.9 0.0
30/01:00pm 21.6 13.8 8.1 42 7.1 NNW 39 57 21 31 1003.9 1003.9 0.0
30/12:30pm 20.7 14.1 9.9 50 5.8 N 35 54 19 29 1004.9 1004.9 0.0
30/12:07pm 20.0 13.4 8.7 48 5.9 NNW 33 57 18 31 1005.6 1005.6 0.0
30/12:00pm 20.4 13.5 9.0 48 6.1 N 35 50 19 27 1005.8 1005.8 0.0
30/11:30am 19.6 13.1 10.3 55 5.0 N 35 54 19 29 1006.1 1006.1 0.0
30/11:00am 19.3 11.9 9.8 54 5.1 N 39 61 21 33 1006.6 1006.6 0.0
30/10:30am 19.7 13.6 9.6 52 5.4 N 32 50 17 27 1007.0 1007.0 0.0
30/10:27am 19.6 13.3 8.9 50 5.6 N 32 50 17 27 1007.1 1007.1 0.0
30/10:00am 18.8 12.4 9.3 54 5.0 N 33 43 18 23 1007.7 1007.7 0.0
30/09:30am 18.1 12.3 9.5 57 4.5 N 30 41 16 22 1008.2 1008.2 0.0
30/09:00am 17.8 12.8 9.7 59 4.3 N 26 39 14 21 1009.0 1009.0 0.0
30/08:30am 17.1 11.9 9.0 59 4.2 N 26 35 14 19 1009.6 1009.6 0.0
30/08:00am 15.9 11.0 8.6 62 3.7 N 24 33 13 18 1009.7 1009.7 0.0
30/07:30am 14.8 10.3 8.5 66 3.2 N 22 35 12 19 1010.1 1010.2 0.0
30/07:00am 14.2 8.8 8.2 67 3.0 NNW 26 32 14 17 1010.3 1010.4 0.0
30/06:30am 13.0 9.3 8.1 72 2.4 NNW 17 24 9 13 1010.2 1010.3 0.0
30/06:00am 12.5 8.8 8.0 74 2.2 N 17 20 9 11 1009.7 1009.7 0.0
30/05:30am 12.8 8.8 8.3 74 2.2 NNW 19 26 10 14 1009.6 1009.6 0.0
30/05:00am 12.9 8.9 8.4 74 2.2 N 19 20 10 11 1009.1 1009.1 0.0
30/04:30am 11.4 8.8 7.7 78 1.8 NW 11 19 6 10 1009.2 1009.2 0.0
30/04:00am 12.1 10.0 8.2 77 1.9 NNW 9 9 5 5 1009.1 1009.1 0.0
30/03:30am 12.0 9.1 8.3 78 1.8 WNW 13 17 7 9 1009.6 1009.6 0.0
30/03:00am 11.3 8.4 8.2 81 1.5 WNW 13 15 7 8 1009.7 1009.7 0.0
30/02:30am 11.8 9.6 7.9 77 1.9 W 9 11 5 6 1009.9 1009.9 0.0
30/02:00am 12.8 9.6 8.5 75 2.2 W 15 20 8 11 1010.5 1010.6 0.0
30/01:30am 13.9 10.4 8.9 72 2.5 N 17 20 9 11 1010.5 1010.6 0.0
30/01:00am 14.6 10.8 9.0 69 2.9 N 19 26 10 14 1010.8 1010.9 0.0
30/12:30am 15.1 11.3 9.2 68 3.0 N 19 28 10 15 1011.1 1011.2 0.0
30/12:00am 15.8 11.2 9.5 66 3.3 N 24 32 13 17 1011.3 1011.4 0.0
 
Date/Time
EST
Tmp

°C
App
Tmp
°C
Dew
Point
°C
Rel
Hum
%
Delta-T

°C
Wind Press
QNH
hPa
Press
MSL
hPa
Rain
since
9 am
mm
Dir
 
Spd
km/h
Gust
km/h
Spd
kts
Gust
kts
29/11:30pm 15.7 10.7 9.6 67 3.2 N 26 37 14 20 1011.5 1011.6 0.0
29/11:00pm 15.6 11.0 9.7 68 3.1 N 24 32 13 17 1011.9 1012.0 0.0
29/10:30pm 15.6 11.0 9.5 67 3.2 N 24 30 13 16 1012.1 1012.2 0.0
29/10:00pm 15.4 12.1 9.7 69 3.0 N 17 24 9 13 1012.1 1012.2 0.0
29/09:30pm 15.5 11.8 9.6 68 3.1 N 19 28 10 15 1012.0 1012.1 0.0
29/09:00pm 15.6 12.3 9.5 67 3.2 N 17 24 9 13 1012.1 1012.2 0.0
29/08:30pm 15.8 12.8 9.2 65 3.4 N 15 22 8 12 1012.1 1012.2 0.0
29/08:00pm 16.4 13.2 8.6 60 4.0 N 15 19 8 10 1011.8 1011.9 0.0
29/07:30pm 17.0 13.5 8.7 58 4.3 N 17 24 9 13 1011.5 1011.6 0.0
29/07:00pm 17.5 14.0 8.6 56 4.6 N 17 24 9 13 1011.4 1011.5 0.0
29/06:30pm 18.6 14.8 7.4 48 5.7 N 17 24 9 13 1011.3 1011.4 0.0
29/06:00pm 19.7 15.3 7.4 45 6.3 N 20 32 11 17 1011.1 1011.2 0.0
29/05:30pm 20.3 15.2 7.7 44 6.5 N 24 33 13 18 1011.1 1011.2 0.0
29/05:00pm 20.9 15.1 7.9 43 6.8 NNW 28 37 15 20 1011.1 1011.2 0.0
29/04:30pm 21.0 15.2 9.3 47 6.3 N 30 41 16 22 1010.8 1010.9 0.0
29/04:00pm 21.3 15.7 8.9 45 6.6 NNW 28 41 15 22 1010.9 1011.0 0.0
29/03:30pm 21.2 15.0 7.8 42 7.0 N 30 43 16 23 1010.9 1011.0 0.0
29/03:00pm 21.6 15.6 8.8 44 6.8 NNW 30 44 16 24 1010.9 1011.0 0.0
29/02:30pm 21.1 15.0 8.4 44 6.7 N 30 43 16 23 1011.1 1011.2 0.0
29/02:00pm 21.0 15.0 8.6 45 6.5 N 30 41 16 22 1011.3 1011.4 0.0
29/01:30pm 21.1 16.2 8.4 44 6.7 N 24 37 13 20 1011.9 1012.0 0.0
29/01:00pm 20.5 15.7 8.8 47 6.2 NNW 24 41 13 22 1012.1 1012.2 0.0
29/12:30pm 20.8 16.3 10.0 50 5.8 NNW 24 30 13 16 1012.7 1012.8 0.0
29/12:00pm 19.4 14.8 8.1 48 5.9 N 22 33 12 18 1012.8 1012.9 0.0
29/11:30am 19.4 15.9 8.7 50 5.6 N 17 22 9 12 1013.2 1013.3 0.0
29/11:00am 18.4 14.9 7.2 48 5.7 NW 15 28 8 15 1013.6 1013.7 0.0
29/10:30am 17.9 13.0 6.7 48 5.6 WNW 22 32 12 17 1013.9 1014.0 0.0
29/10:00am 17.9 13.2 7.6 51 5.2 NW 22 32 12 17 1014.0 1014.1 0.0
29/09:30am 17.3 12.9 7.6 53 4.9 WNW 20 32 11 17 1014.2 1014.3 0.0
29/09:00am 16.1 12.8 8.1 59 4.1 NW 15 24 8 13 1014.1 1014.2 0.0
29/08:30am 16.0 13.1 8.2 60 4.0 WNW 13 17 7 9 1013.8 1013.9 0.0
29/08:00am 15.4 11.1 7.7 60 3.9 W 20 28 11 15 1013.6 1013.7 0.0
29/07:30am 14.9 11.0 8.8 67 3.1 WNW 19 24 10 13 1013.5 1013.6 0.0
29/07:00am 14.4 11.7 9.0 70 2.8 NW 13 17 7 9 1013.2 1013.3 0.0
29/06:30am 13.9 10.7 8.3 69 2.8 NW 15 20 8 11 1012.6 1012.7 0.0
29/06:00am 13.6 11.0 7.8 68 2.9 NNW 11 17 6 9 1012.3 1012.4 0.0
29/05:30am 13.5 10.8 7.5 67 2.9 NNW 11 13 6 7 1011.8 1011.9 0.0
29/05:00am 13.9 12.2 7.7 66 3.1 NNW 6 9 3 5 1011.7 1011.8 0.0
29/04:30am 13.7 9.4 7.0 64 3.3 WNW 19 24 10 13 1011.0 1011.1 0.0
29/04:00am 13.9 9.8 6.0 59 3.8 WNW 17 24 9 13 1011.0 1011.1 0.0
29/03:30am 13.0 8.6 4.9 58 3.8 WNW 17 22 9 12 1010.5 1010.6 0.0
29/03:00am 12.8 9.5 4.5 57 3.8 W 11 15 6 8 1010.6 1010.7 0.0
29/02:30am 13.0 10.1 4.9 58 3.8 SSW 9 11 5 6 1010.2 1010.3 0.0
29/02:00am 13.6 10.5 5.7 59 3.7 WSW 11 17 6 9 1010.1 1010.2 0.0
29/01:30am 15.5 9.9 7.0 57 4.2 W 26 33 14 18 1009.7 1009.7 0.0
29/01:00am 15.8 11.7 8.8 63 3.6 W 20 28 11 15 1009.5 1009.5 0.0
29/12:30am 15.4 12.6 10.0 70 2.8 WSW 15 26 8 14 1008.8 1008.8 0.0
29/12:00am 15.3 12.5 10.1 71 2.7 SW 15 22 8 12 1008.7 1008.7 0.0
 
Date/Time
EST
Tmp

°C
App
Tmp
°C
Dew
Point
°C
Rel
Hum
%
Delta-T

°C
Wind Press
QNH
hPa
Press
MSL
hPa
Rain
since
9 am
mm
Dir
 
Spd
km/h
Gust
km/h
Spd
kts
Gust
kts
28/11:30pm 15.6 12.5 10.2 70 2.8 SW 17 22 9 12 1008.2 1008.2 0.0
28/11:00pm 16.0 12.4 10.5 70 2.9 SW 20 26 11 14 1007.4 1007.4 0.0
28/10:30pm 16.8 12.5 10.6 67 3.3 WSW 24 32 13 17 1007.3 1007.3 0.0
28/10:00pm 17.5 12.9 10.9 65 3.6 WSW 26 33 14 18 1006.9 1006.9 0.0
28/09:55pm 17.6 12.5 10.7 64 3.7 WSW 28 37 15 20 1006.8 1006.8 0.0
28/09:30pm 22.6 17.2 8.0 39 7.7 NNW 26 48 14 26 1005.9 1005.9 0.0
28/09:27pm 22.6 15.9 8.0 39 7.7 NNW 33 52 18 28 1005.9 1005.9 0.0
28/09:18pm 23.1 15.1 7.6 37 8.1 NNW 39 52 21 28 1005.9 1005.9 0.0
28/09:00pm 23.3 16.0 7.4 36 8.4 N 35 48 19 26 1004.6 1004.6 0.0
28/08:31pm 23.1 15.4 7.2 36 8.3 N 37 56 20 30 1003.7 1003.7 0.0
28/08:30pm 23.2 15.2 7.3 36 8.3 N 39 56 21 30 1003.8 1003.8 0.0
28/08:00pm 23.6 15.6 7.3 35 8.6 N 39 57 21 31 1003.5 1003.5 0.0
28/07:35pm 23.6 16.7 7.3 35 8.5 N 33 56 18 30 1003.4 1003.4 0.0
28/07:30pm 23.4 16.5 7.1 35 8.5 N 33 46 18 25 1003.4 1003.4 0.0
28/07:00pm 23.6 16.8 6.8 34 8.7 N 32 44 17 24 1004.0 1004.0 0.0
28/06:30pm 24.2 16.7 6.5 32 9.2 N 35 54 19 29 1003.8 1003.8 0.0
28/06:06pm 25.0 17.1 6.2 30 9.7 N 37 57 20 31 1003.6 1003.6 0.0
28/06:00pm 24.7 16.8 6.4 31 9.5 N 37 52 20 28 1003.5 1003.5 0.0
28/05:30pm 25.4 17.3 7.1 31 9.6 N 39 57 21 31 1003.5 1003.5 0.0
28/05:00pm 26.2 17.2 7.3 30 10.1 N 44 69 24 37 1003.5 1003.5 0.0
28/04:30pm 26.8 17.2 7.8 30 10.2 N 48 69 26 37 1004.7 1004.7 0.0
28/04:00pm 26.0 16.9 9.8 36 9.0 N 48 72 26 39 1004.6 1004.6 0.0
28/03:30pm 26.3 16.1 10.0 36 9.1 N 54 87 29 47 1004.3 1004.3 0.0
28/03:00pm 25.5 15.1 10.5 39 8.4 N 56 78 30 42 1004.8 1004.8 0.0
28/02:30pm 24.8 17.3 12.7 47 7.0 N 44 63 24 34 1006.0 1006.0 0.0
28/02:00pm 24.6 18.2 13.2 49 6.7 N 39 61 21 33 1007.1 1007.1 0.0
28/01:30pm 24.2 17.7 12.8 49 6.6 N 39 63 21 34 1007.9 1007.9 0.0
28/01:00pm 23.2 14.7 11.9 49 6.4 N 48 70 26 38 1007.6 1007.6 0.0
28/12:30pm 23.0 12.5 11.1 47 6.6 N 57 83 31 45 1007.0 1007.0 0.0
28/12:00pm 22.3 12.5 11.4 50 6.1 N 54 76 29 41 1006.5 1006.5 0.0
28/11:30am 21.7 12.0 10.5 49 6.1 N 52 78 28 42 1007.5 1007.5 0.0
28/11:00am 21.4 11.4 10.6 50 5.9 N 54 76 29 41 1008.5 1008.5 0.0
28/10:30am 20.7 11.7 10.2 51 5.7 N 48 72 26 39 1009.7 1009.7 0.0
28/10:02am 20.1 9.8 9.7 51 5.6 N 54 72 29 39 1011.5 1011.6 0.0
28/10:00am 20.0 10.1 9.6 51 5.6 N 52 69 28 37 1011.6 1011.7 0.0
28/09:30am 19.8 11.1 10.0 53 5.3 N 46 65 25 35 1012.4 1012.5 0.0
28/09:00am 19.1 9.5 9.3 53 5.2 N 50 72 27 39 1012.4 1012.5 0.0
28/08:31am 18.6 10.2 9.7 56 4.7 N 44 63 24 34 1013.0 1013.1 0.0
28/08:30am 18.5 9.7 9.6 56 4.7 N 46 63 25 34 1013.0 1013.1 0.0
28/08:00am 17.4 9.6 9.6 60 4.1 N 41 59 22 32 1013.3 1013.4 0.0
28/07:30am 16.2 7.9 9.4 64 3.5 N 43 61 23 33 1013.3 1013.4 0.0
28/07:00am 15.8 7.2 9.0 64 3.5 N 44 63 24 34 1013.5 1013.6 0.0
28/06:38am 15.7 7.7 9.1 65 3.4 N 41 59 22 32 1013.5 1013.6 0.0
28/06:30am 15.3 7.7 9.0 66 3.2 N 39 54 21 29 1013.6 1013.7 0.0
28/06:00am 15.8 7.2 9.0 64 3.5 N 44 63 24 34 1013.3 1013.4 0.0
28/05:30am 15.8 6.8 9.0 64 3.5 N 46 67 25 36 1013.2 1013.3 0.0
28/05:00am 15.8 6.8 9.0 64 3.5 N 46 65 25 35 1012.9 1013.0 0.0
28/04:30am 15.8 6.9 9.2 65 3.4 N 46 67 25 36 1012.6 1012.7 0.0
28/04:00am 15.6 6.3 9.3 66 3.3 N 48 69 26 37 1012.7 1012.8 0.0
28/03:30am 15.7 6.9 9.4 66 3.3 N 46 65 25 35 1012.9 1013.0 0.0
28/03:00am 15.8 7.4 9.5 66 3.3 N 44 67 24 36 1013.0 1013.1 0.0
28/02:30am 16.1 7.9 9.8 66 3.3 N 43 63 23 34 1013.0 1013.1 0.0
28/02:03am 16.0 9.0 9.9 67 3.2 N 37 56 20 30 1013.6 1013.7 0.0
28/02:00am 16.1 8.7 10.0 67 3.2 N 39 56 21 30 1013.6 1013.7 0.0
28/01:32am 16.1 9.5 10.0 67 3.2 N 35 54 19 29 1014.0 1014.1 0.0
28/01:30am 16.0 9.4 10.1 68 3.1 N 35 48 19 26 1014.1 1014.2 0.0
28/01:00am 16.0 9.8 10.1 68 3.1 N 33 46 18 25 1014.6 1014.7 0.0
28/12:30am 16.3 9.4 10.4 68 3.1 N 37 56 20 30 1014.9 1015.0 0.0
28/12:00am 16.5 8.9 10.6 68 3.1 N 41 63 22 34 1014.9 1015.0 0.0
 
Date/Time
EST
Tmp

°C
App
Tmp
°C
Dew
Point
°C
Rel
Hum
%
Delta-T

°C
Wind Press
QNH
hPa
Press
MSL
hPa
Rain
since
9 am
mm
Dir
 
Spd
km/h
Gust
km/h
Spd
kts
Gust
kts
27/11:53pm 16.5 9.3 10.6 68 3.1 N 39 57 21 31 1015.0 1015.1 0.0
27/11:30pm 16.6 9.4 10.7 68 3.2 N 39 54 21 29 1015.3 1015.3 0.0
27/11:11pm 16.8 10.5 10.9 68 3.2 N 35 54 19 29 1015.5 1015.5 0.0
27/11:00pm 16.7 10.8 10.5 67 3.3 N 32 44 17 24 1015.7 1015.7 0.0
27/10:34pm 17.1 11.1 10.7 66 3.4 N 33 54 18 29 1015.7 1015.7 0.0
27/10:30pm 16.9 10.8 10.5 66 3.4 N 33 46 18 25 1015.8 1015.8 0.0
27/10:00pm 17.2 11.4 10.8 66 3.4 N 32 48 17 26 1016.0 1016.0 0.0
27/09:54pm 17.2 11.8 10.8 66 3.4 N 30 48 16 26 1016.0 1016.0 0.0

Latest Capital City Observations: Canberra | Sydney | Melbourne | Brisbane | Adelaide | Perth | Hobart | Darwin

Other Formats:

Comma delimited format used in spreadsheet applications
http://www.bom.gov.au/fwo/IDV60901/IDV60901.95866.axf

JavaScript Object Notation format (JSON) in row-major order
http://www.bom.gov.au/fwo/IDV60901/IDV60901.95866.json